Time;durP1;ratioP1;P1;durP2;ratioP2;P2;SDS_P1;SDS_P2;PMS_P1;PMS_P2;Temp;Humidity;BMP_temperature;BMP_pressure;BME280_temperature;BME280_humidity;BME280_pressure;Samples;Min_cycle;Max_cycle;Signal;HPM_P1;HPM_P2
2021/09/27 00:00:28;;;;;;;7.67;6.70;;;19.70;99.90;;;;;;5009282;28;21035;-79
2021/09/27 00:02:56;;;;;;;10.27;7.90;;;19.70;1.00;;;;;;5008743;28;21166;-75
2021/09/27 00:05:25;;;;;;;9.53;8.47;;;19.70;99.90;;;;;;5009964;28;20479;-75
2021/09/27 00:07:54;;;;;;;10.40;8.37;;;19.90;99.90;;;;;;5014801;28;20452;-76
2021/09/27 00:10:26;;;;;;;9.73;8.07;;;20.00;1.00;;;;;;5025197;28;20457;-77
2021/09/27 00:12:55;;;;;;;11.70;8.80;;;20.40;1.00;;;;;;5012079;28;20492;-77
2021/09/27 00:15:36;;;;;;;9.27;8.37;;;20.30;99.90;;;;;;5005290;28;20449;-76
2021/09/27 00:18:04;;;;;;;8.30;7.30;;;20.20;99.90;;;;;;5011846;28;20684;-77
2021/09/27 00:20:33;;;;;;;7.93;7.13;;;20.30;99.90;;;;;;5009958;28;20564;-76
2021/09/27 00:23:01;;;;;;;8.57;7.67;;;20.30;99.90;;;;;;5011510;28;20477;-76
2021/09/27 00:25:31;;;;;;;9.67;7.67;;;20.20;99.90;;;;;;5010216;28;20456;-76
2021/09/27 00:27:59;;;;;;;10.37;8.83;;;20.10;99.90;;;;;;5011071;28;20516;-76
2021/09/27 00:30:27;;;;;;;8.83;7.93;;;20.00;1.00;;;;;;5010937;28;20543;-76
2021/09/27 00:32:55;;;;;;;8.97;8.07;;;20.00;99.90;;;;;;5012385;28;20488;-77
2021/09/27 00:35:28;;;;;;;9.00;7.10;;;20.00;99.90;;;;;;5010976;28;20499;-79
2021/09/27 00:37:57;;;;;;;8.20;7.10;;;20.00;99.90;;;;;;5010604;28;20850;-76
2021/09/27 00:40:27;;;;;;;7.97;6.63;;;20.00;99.90;;;;;;5008605;28;20518;-76
2021/09/27 00:42:58;;;;;;;8.37;7.13;;;20.00;99.90;;;;;;5012456;28;20543;-76
2021/09/27 00:45:28;;;;;;;7.47;6.67;;;19.90;99.90;;;;;;5007820;28;20484;-75
2021/09/27 00:47:56;;;;;;;8.40;7.00;;;19.80;99.90;;;;;;5009783;28;20461;-76
2021/09/27 00:50:27;;;;;;;8.30;7.40;;;19.80;99.90;;;;;;5023982;28;20469;-77
2021/09/27 00:52:56;;;;;;;7.77;6.87;;;19.90;99.90;;;;;;5007809;28;20477;-78
2021/09/27 00:55:25;;;;;;;6.97;6.37;;;20.00;99.90;;;;;;5010411;28;20507;-76
2021/09/27 00:57:57;;;;;;;10.20;6.90;;;20.10;99.90;;;;;;5008638;28;20522;-77
2021/09/27 01:00:27;;;;;;;8.40;6.33;;;20.10;99.90;;;;;;5008263;28;20527;-77
2021/09/27 01:02:56;;;;;;;7.87;6.30;;;20.10;93.90;;;;;;5001918;28;20481;-76
2021/09/27 01:05:25;;;;;;;8.07;7.07;;;20.20;78.80;;;;;;5009856;28;20488;-75
2021/09/27 01:08:01;;;;;;;8.10;6.43;;;20.10;72.30;;;;;;5010112;28;20804;-77
2021/09/27 01:10:47;;;;;;;7.37;6.33;;;20.00;90.50;;;;;;5003500;28;20511;-78
2021/09/27 01:13:43;;;;;;;8.93;6.93;;;19.80;99.90;;;;;;5008215;28;20483;-79
2021/09/27 01:16:19;;;;;;;8.10;7.30;;;19.90;99.90;;;;;;5009239;28;20452;-76
2021/09/27 01:19:02;;;;;;;6.73;6.03;;;19.80;99.90;;;;;;5009323;28;20511;-75
2021/09/27 01:21:45;;;;;;;7.60;6.40;;;19.60;99.90;;;;;;5010222;28;20457;-76
2021/09/27 01:24:43;;;;;;;8.00;6.60;;;19.50;99.90;;;;;;5007310;28;20457;-78
2021/09/27 01:27:44;;;;;;;6.97;5.33;;;19.50;99.90;;;;;;5003513;28;20489;-75
2021/09/27 01:30:51;;;;;;;6.87;6.17;;;19.60;99.90;;;;;;5008213;28;20453;-75
2021/09/27 01:33:23;;;;;;;7.07;6.30;;;19.90;99.90;;;;;;5007793;28;20472;-76
2021/09/27 01:36:02;;;;;;;8.23;6.70;;;19.90;99.90;;;;;;5012840;28;20449;-75
2021/09/27 01:38:37;;;;;;;8.03;6.70;;;20.00;61.80;;;;;;4994720;28;20478;-75
2021/09/27 01:41:16;;;;;;;7.43;6.13;;;19.90;31.70;;;;;;5013059;28;20460;-75
2021/09/27 01:43:49;;;;;;;9.17;7.27;;;19.70;78.90;;;;;;5012835;28;20488;-74
2021/09/27 01:46:24;;;;;;;9.17;6.40;;;19.70;99.90;;;;;;5012451;28;20489;-77
2021/09/27 01:48:59;;;;;;;6.47;5.87;;;19.90;92.90;;;;;;5012099;28;20453;-77
2021/09/27 01:51:35;;;;;;;7.17;6.47;;;19.90;21.90;;;;;;5029265;28;20981;-76
2021/09/27 01:54:14;;;;;;;7.20;6.00;;;20.00;1.00;;;;;;5014127;28;20583;-76
2021/09/27 01:56:54;;;;;;;7.27;5.80;;;19.90;1.00;;;;;;5013026;28;20476;-76
2021/09/27 01:59:30;;;;;;;10.13;6.67;;;19.80;21.40;;;;;;5014159;28;20449;-77
2021/09/27 02:02:04;;;;;;;7.33;6.33;;;19.60;99.90;;;;;;5008109;28;20484;-76
2021/09/27 02:04:41;;;;;;;8.80;6.20;;;19.60;87.40;;;;;;5009636;28;20453;-73
2021/09/27 02:07:13;;;;;;;8.87;7.07;;;19.60;91.70;;;;;;5011877;28;20445;-76
2021/09/27 02:09:51;;;;;;;6.63;6.03;;;19.50;99.90;;;;;;5014254;28;20456;-76
2021/09/27 02:12:25;;;;;;;6.97;5.90;;;19.40;99.90;;;;;;5010404;28;20531;-75
2021/09/27 02:15:02;;;;;;;6.90;6.17;;;19.40;99.90;;;;;;5012670;28;21136;-75
2021/09/27 02:17:38;;;;;;;6.40;5.80;;;19.50;99.90;;;;;;5007209;28;20524;-75
2021/09/27 02:20:12;;;;;;;7.70;6.03;;;19.50;99.90;;;;;;5004900;28;20473;-78
2021/09/27 02:22:46;;;;;;;6.83;6.23;;;19.70;98.50;;;;;;5011962;28;20515;-76
2021/09/27 02:25:21;;;;;;;6.30;5.70;;;19.80;78.70;;;;;;5013443;28;20508;-77
2021/09/27 02:27:51;;;;;;;9.23;6.97;;;19.70;46.50;;;;;;5012056;28;20449;-78
2021/09/27 02:30:25;;;;;;;9.50;6.80;;;19.70;95.60;;;;;;5012479;28;20445;-77
2021/09/27 02:33:06;;;;;;;8.00;7.20;;;19.80;42.90;;;;;;4993687;28;20473;-77
2021/09/27 02:35:43;;;;;;;9.40;6.10;;;19.80;51.90;;;;;;5008772;28;20453;-78
2021/09/27 02:38:18;;;;;;;7.73;6.93;;;19.80;23.60;;;;;;5014338;28;20473;-77
2021/09/27 02:40:52;;;;;;;8.00;6.40;;;19.70;43.60;;;;;;5005955;28;21212;-77
2021/09/27 02:43:20;;;;;;;9.77;7.60;;;19.60;99.90;;;;;;5011736;28;20522;-76
2021/09/27 02:45:48;;;;;;;8.37;6.97;;;19.60;99.90;;;;;;5011261;28;20457;-76
2021/09/27 02:48:28;;;;;;;7.87;6.80;;;19.70;99.90;;;;;;5012596;28;20446;-76
2021/09/27 02:50:58;;;;;;;9.90;8.10;;;19.70;90.40;;;;;;5010425;28;20515;-76
2021/09/27 02:53:26;;;;;;;7.30;6.60;;;19.70;53.90;;;;;;5010103;28;20497;-73
2021/09/27 02:56:20;;;;;;;8.03;6.23;;;19.70;87.20;;;;;;5011152;28;20449;-76
2021/09/27 02:58:59;;;;;;;8.00;6.60;;;19.70;99.90;;;;;;5014458;28;20488;-75
2021/09/27 03:01:35;;;;;;;7.70;5.93;;;19.80;76.10;;;;;;5010808;28;20922;-75
2021/09/27 03:04:06;;;;;;;7.23;5.77;;;19.90;61.80;;;;;;5010973;28;20555;-76
2021/09/27 03:06:50;;;;;;;8.03;6.83;;;19.90;33.90;;;;;;5011066;28;20461;-76
2021/09/27 03:09:27;;;;;;;7.20;6.40;;;19.90;33.50;;;;;;5002369;28;20437;-76
2021/09/27 03:12:09;;;;;;;9.30;7.43;;;19.90;27.40;;;;;;5011064;28;20429;-76
2021/09/27 03:15:04;;;;;;;7.73;6.93;;;20.00;10.30;;;;;;5010250;28;20504;-78
2021/09/27 03:17:37;;;;;;;6.70;5.90;;;20.00;27.80;;;;;;4994166;28;21246;-75
2021/09/27 03:20:28;;;;;;;8.27;6.67;;;19.80;56.40;;;;;;5009325;28;20449;-75
2021/09/27 03:23:05;;;;;;;7.63;6.57;;;19.70;99.90;;;;;;5010784;28;21086;-77
2021/09/27 03:25:46;;;;;;;8.17;7.43;;;19.60;99.90;;;;;;5009653;28;20445;-75
2021/09/27 03:28:20;;;;;;;6.57;5.90;;;19.80;99.90;;;;;;5009151;28;20531;-76
2021/09/27 03:30:58;;;;;;;7.17;6.13;;;19.80;99.90;;;;;;5007958;28;20987;-76
2021/09/27 03:33:36;;;;;;;8.00;7.00;;;19.70;99.90;;;;;;5011248;28;20469;-75
2021/09/27 03:36:23;;;;;;;7.27;6.20;;;19.70;99.90;;;;;;5009911;28;20457;-75
2021/09/27 03:38:59;;;;;;;7.00;6.30;;;19.80;90.20;;;;;;5002055;28;20512;-76
2021/09/27 03:41:33;;;;;;;6.93;5.77;;;19.70;99.90;;;;;;5010969;28;20453;-76
2021/09/27 03:44:11;;;;;;;7.23;6.33;;;19.80;99.90;;;;;;5007470;28;20567;-76
2021/09/27 03:46:48;;;;;;;6.73;5.67;;;19.90;61.70;;;;;;4991296;28;20454;-76
2021/09/27 03:49:26;;;;;;;9.13;6.67;;;19.90;27.60;;;;;;5010693;28;20480;-75
2021/09/27 03:51:58;;;;;;;7.70;6.30;;;19.80;15.70;;;;;;5010842;28;20445;-75
2021/09/27 03:54:33;;;;;;;8.93;6.23;;;19.70;43.20;;;;;;5007641;28;20512;-75
2021/09/27 03:57:07;;;;;;;9.17;7.53;;;19.70;30.10;;;;;;5009937;28;20519;-75
2021/09/27 03:59:43;;;;;;;7.77;6.97;;;19.70;15.80;;;;;;5007896;28;20580;-75
2021/09/27 04:02:18;;;;;;;7.50;6.30;;;19.70;16.00;;;;;;5007286;28;20484;-73
2021/09/27 04:04:56;;;;;;;7.47;6.27;;;19.70;18.10;;;;;;5007860;28;20603;-74
2021/09/27 04:07:33;;;;;;;10.07;6.90;;;19.80;1.00;;;;;;5010064;28;20523;-76
2021/09/27 04:10:15;;;;;;;6.70;6.10;;;19.80;1.00;;;;;;5009516;28;20453;-75
2021/09/27 04:12:54;;;;;;;6.53;5.40;;;19.80;1.00;;;;;;5008062;28;20935;-75
2021/09/27 04:15:37;;;;;;;6.83;5.47;;;19.80;1.00;;;;;;5020791;28;20515;-78
2021/09/27 04:18:12;;;;;;;7.10;5.87;;;19.60;1.00;;;;;;5009017;28;20832;-75
2021/09/27 04:20:56;;;;;;;8.53;6.40;;;19.70;1.00;;;;;;5008182;28;20503;-75
2021/09/27 04:23:40;;;;;;;8.13;6.60;;;19.70;1.00;;;;;;5006252;28;20519;-75
2021/09/27 04:26:19;;;;;;;6.93;5.63;;;19.60;1.00;;;;;;5008323;28;21357;-75
2021/09/27 04:29:10;;;;;;;7.73;6.40;;;19.60;1.00;;;;;;5007536;28;20441;-75
2021/09/27 04:31:48;;;;;;;7.77;6.40;;;19.50;1.00;;;;;;5008100;28;20444;-73
2021/09/27 04:34:51;;;;;;;6.70;6.00;;;19.50;1.00;;;;;;5008716;28;20449;-79
2021/09/27 04:37:20;;;;;;;7.87;5.97;;;19.40;1.00;;;;;;5013413;28;20468;-77
2021/09/27 04:39:49;;;;;;;7.23;6.20;;;19.20;1.00;;;;;;5015527;28;20485;-75
2021/09/27 04:42:40;;;;;;;9.30;6.30;;;19.00;23.00;;;;;;5016272;28;20473;-78
2021/09/27 04:45:41;;;;;;;8.67;6.47;;;18.90;99.90;;;;;;5017987;28;20461;-79
2021/09/27 04:48:22;;;;;;;8.43;6.27;;;18.80;99.90;;;;;;5018524;28;20454;-77
2021/09/27 04:51:11;;;;;;;7.50;6.60;;;18.90;99.90;;;;;;5017393;28;20457;-77
2021/09/27 04:53:55;;;;;;;7.53;6.80;;;18.80;99.90;;;;;;5017119;28;20989;-80
2021/09/27 04:56:32;;;;;;;6.87;5.83;;;18.50;1.00;;;;;;5018956;28;20465;-80
2021/09/27 04:59:13;;;;;;;8.10;6.70;;;18.50;1.00;;;;;;5017003;28;20480;-78
2021/09/27 05:02:16;;;;;;;6.60;5.90;;;18.40;1.00;;;;;;5017301;28;20480;-77
2021/09/27 05:04:51;;;;;;;8.30;7.17;;;18.30;70.20;;;;;;5017949;28;20446;-78
2021/09/27 05:08:04;;;;;;;11.63;5.83;;;18.30;30.40;;;;;;5017391;28;20437;-78
2021/09/27 05:11:00;;;;;;;6.80;5.83;;;18.30;99.90;;;;;;5014339;28;20453;-78
2021/09/27 05:14:04;;;;;;;8.80;6.43;;;18.40;1.00;;;;;;5028405;28;20563;-77
2021/09/27 05:16:43;;;;;;;6.77;6.17;;;18.40;1.00;;;;;;5017287;28;20455;-78
2021/09/27 05:19:38;;;;;;;8.47;7.07;;;18.60;1.00;;;;;;5019187;28;20481;-75
2021/09/27 05:22:34;;;;;;;7.50;6.47;;;18.70;99.90;;;;;;5011892;28;20482;-79
2021/09/27 05:25:20;;;;;;;7.60;6.80;;;18.90;99.90;;;;;;5006586;28;20461;-77
2021/09/27 05:28:06;;;;;;;10.53;6.73;;;19.20;99.90;;;;;;5023111;28;21048;-79
2021/09/27 05:30:52;;;;;;;9.23;6.90;;;19.00;99.90;;;;;;4999631;28;20448;-79
2021/09/27 05:33:30;;;;;;;7.53;6.10;;;18.90;99.90;;;;;;5012543;28;20988;-77
2021/09/27 05:36:22;;;;;;;9.00;6.77;;;18.90;99.90;;;;;;5005079;28;21085;-78
2021/09/27 05:39:03;;;;;;;8.80;5.70;;;18.60;99.90;;;;;;5007826;28;20482;-78
2021/09/27 05:41:45;;;;;;;7.73;6.40;;;18.40;99.90;;;;;;5007274;28;20487;-78
2021/09/27 05:44:29;;;;;;;7.40;6.27;;;18.40;1.00;;;;;;5010210;28;20485;-78
2021/09/27 05:47:20;;;;;;;9.40;6.47;;;18.50;99.90;;;;;;5009017;28;20493;-78
2021/09/27 05:50:02;;;;;;;6.70;5.33;;;18.60;99.90;;;;;;5010402;28;20503;-79
2021/09/27 05:52:38;;;;;;;6.47;5.70;;;18.60;99.90;;;;;;5009916;28;20880;-77
2021/09/27 05:55:12;;;;;;;11.53;7.57;;;18.40;99.90;;;;;;5011088;28;20507;-78
2021/09/27 05:57:46;;;;;;;9.10;6.30;;;18.10;1.00;;;;;;5012023;28;20463;-78
2021/09/27 06:00:22;;;;;;;8.50;6.50;;;18.30;1.00;;;;;;5010408;28;20598;-78
2021/09/27 06:03:11;;;;;;;7.17;6.07;;;18.50;99.90;;;;;;5009538;28;20480;-78
2021/09/27 06:05:47;;;;;;;7.33;5.63;;;18.60;99.90;;;;;;5007928;28;20496;-79
2021/09/27 06:08:23;;;;;;;8.63;6.57;;;18.70;99.90;;;;;;5010732;28;20461;-79
2021/09/27 06:10:58;;;;;;;7.40;6.30;;;18.60;99.90;;;;;;5009022;28;21029;-78
2021/09/27 06:13:30;;;;;;;7.17;6.47;;;18.50;99.90;;;;;;5006221;28;20531;-79
2021/09/27 06:16:00;;;;;;;7.40;5.83;;;18.50;99.90;;;;;;5008142;28;20459;-79
2021/09/27 06:18:57;;;;;;;6.83;6.00;;;18.50;99.90;;;;;;5005920;28;20460;-78
2021/09/27 06:21:50;;;;;;;7.73;5.63;;;18.60;99.90;;;;;;5007548;28;20484;-79
2021/09/27 06:24:27;;;;;;;9.13;6.37;;;18.60;99.90;;;;;;5012290;28;20469;-78
2021/09/27 06:27:01;;;;;;;7.07;6.20;;;18.50;99.90;;;;;;5011008;28;20459;-79
2021/09/27 06:29:41;;;;;;;7.10;5.20;;;18.70;99.90;;;;;;5011660;28;20460;-78
2021/09/27 06:32:19;;;;;;;9.00;6.03;;;18.80;99.90;;;;;;5009302;28;20542;-78
2021/09/27 06:34:51;;;;;;;6.63;6.00;;;18.90;99.90;;;;;;5013057;28;20858;-77
2021/09/27 06:37:23;;;;;;;7.70;5.50;;;19.00;99.90;;;;;;5013866;28;20503;-78
2021/09/27 06:39:52;;;;;;;7.20;5.67;;;19.10;99.90;;;;;;5014800;28;20481;-77
2021/09/27 06:42:21;;;;;;;8.20;6.70;;;18.90;99.90;;;;;;5012244;28;20480;-79
2021/09/27 06:44:49;;;;;;;7.80;5.13;;;19.00;99.90;;;;;;5025150;28;20481;-78
2021/09/27 06:47:17;;;;;;;7.10;5.80;;;18.80;99.90;;;;;;5002375;28;20533;-78
2021/09/27 06:49:45;;;;;;;7.37;6.67;;;18.80;99.90;;;;;;5008976;28;20454;-79
2021/09/27 06:52:13;;;;;;;6.60;6.00;;;18.90;99.90;;;;;;5007829;28;20542;-79
2021/09/27 06:54:43;;;;;;;6.83;5.67;;;19.00;99.90;;;;;;5008966;28;20511;-78
2021/09/27 06:57:12;;;;;;;5.93;5.10;;;19.10;99.90;;;;;;5012090;28;20523;-76
2021/09/27 06:59:40;;;;;;;7.70;5.60;;;19.00;99.90;;;;;;5009525;28;20481;-78
2021/09/27 07:02:19;;;;;;;5.47;4.97;;;18.90;99.90;;;;;;5025412;28;20512;-79
2021/09/27 07:04:47;;;;;;;5.73;4.80;;;18.90;99.90;;;;;;5011836;28;20472;-77
2021/09/27 07:07:16;;;;;;;6.00;4.70;;;18.80;99.90;;;;;;5012534;28;20512;-78
2021/09/27 07:09:46;;;;;;;5.73;5.23;;;18.80;99.90;;;;;;5010108;28;20519;-79
2021/09/27 07:12:14;;;;;;;7.33;4.60;;;18.80;99.90;;;;;;5012247;28;20466;-78
2021/09/27 07:14:42;;;;;;;6.40;4.53;;;19.00;99.90;;;;;;5010618;28;20453;-78
2021/09/27 07:17:11;;;;;;;5.67;4.77;;;19.20;99.90;;;;;;5006320;28;20460;-76
2021/09/27 07:19:40;;;;;;;6.07;5.40;;;19.30;99.90;;;;;;5006691;28;20571;-78
2021/09/27 07:22:22;;;;;;;6.43;5.20;;;19.30;99.90;;;;;;5005394;28;20543;-77
2021/09/27 07:24:52;;;;;;;6.63;5.17;;;19.30;99.90;;;;;;5011170;28;20503;-77
2021/09/27 07:27:20;;;;;;;5.80;5.30;;;19.40;99.90;;;;;;5008516;28;20449;-76
2021/09/27 07:29:48;;;;;;;7.10;6.10;;;19.50;99.90;;;;;;5007690;28;21015;-78
2021/09/27 07:32:16;;;;;;;5.80;4.70;;;19.60;99.90;;;;;;5004499;28;21055;-78
2021/09/27 07:34:44;;;;;;;5.70;5.20;;;19.60;99.90;;;;;;5010386;28;20540;-77
2021/09/27 07:37:13;;;;;;;5.20;4.70;;;19.60;99.90;;;;;;5009212;28;20461;-78
2021/09/27 07:39:41;;;;;;;6.33;5.13;;;19.60;99.90;;;;;;5008957;28;20452;-77
2021/09/27 07:42:12;;;;;;;6.80;4.57;;;19.70;99.90;;;;;;5009360;28;20564;-77
2021/09/27 07:44:40;;;;;;;6.73;5.30;;;19.80;99.90;;;;;;5009007;28;20450;-77
2021/09/27 07:47:08;;;;;;;6.33;4.30;;;19.90;96.00;;;;;;5009372;28;20507;-78
2021/09/27 07:49:36;;;;;;;5.03;4.20;;;20.00;85.10;;;;;;5008366;28;20453;-77
2021/09/27 07:52:06;;;;;;;4.33;3.90;;;20.30;99.90;;;;;;5007017;28;20643;-77
2021/09/27 07:54:38;;;;;;;4.10;3.70;;;20.50;11.60;;;;;;5008763;28;20453;-78
2021/09/27 07:57:06;;;;;;;5.50;4.93;;;20.90;1.00;;;;;;5009997;28;20529;-77
2021/09/27 07:59:36;;;;;;;4.37;3.97;;;21.20;1.00;;;;;;5007736;28;20532;-78
2021/09/27 08:02:04;;;;;;;4.27;3.87;;;21.60;1.00;;;;;;5008482;28;20536;-77
2021/09/27 08:04:34;;;;;;;3.93;3.57;;;21.90;1.00;;;;;;5008897;28;20891;-77
2021/09/27 08:07:02;;;;;;;3.83;3.40;;;22.10;1.00;;;;;;5009780;28;20464;-77
2021/09/27 08:09:30;;;;;;;3.10;2.90;;;22.40;1.00;;;;;;5010982;28;20463;-78
2021/09/27 08:11:59;;;;;;;3.93;3.53;;;22.60;1.00;;;;;;5005675;28;20458;-78
2021/09/27 08:14:27;;;;;;;3.27;2.97;;;22.80;99.90;;;;;;4998880;28;20544;-79
2021/09/27 08:16:57;;;;;;;3.10;2.80;;;22.90;99.90;;;;;;5004401;28;20464;-79
2021/09/27 08:19:25;;;;;;;3.17;2.87;;;23.10;99.90;;;;;;5003829;28;20453;-78
2021/09/27 08:21:54;;;;;;;3.77;2.80;;;23.20;99.90;;;;;;5005209;28;20540;-78
2021/09/27 08:24:23;;;;;;;3.13;2.80;;;23.40;99.90;;;;;;5010798;28;20450;-78
2021/09/27 08:26:51;;;;;;;3.40;3.10;;;23.40;99.90;;;;;;5008292;28;20540;-77
2021/09/27 08:29:19;;;;;;;3.60;3.30;;;23.40;99.90;;;;;;5005679;28;20465;-78
2021/09/27 08:31:48;;;;;;;3.53;3.17;;;23.50;99.90;;;;;;5006410;28;20511;-76
2021/09/27 08:34:17;;;;;;;2.70;2.50;;;23.60;99.90;;;;;;5009168;28;20460;-78
2021/09/27 08:36:48;;;;;;;4.23;2.47;;;23.60;99.90;;;;;;5004918;28;21024;-78
2021/09/27 08:39:16;;;;;;;2.77;2.47;;;23.80;99.90;;;;;;5007447;28;20457;-78
2021/09/27 08:41:51;;;;;;;2.67;2.30;;;23.80;99.90;;;;;;5010996;28;20558;-78
2021/09/27 08:44:42;;;;;;;2.33;2.10;;;23.90;99.90;;;;;;5013623;28;20480;-77
2021/09/27 08:47:16;;;;;;;3.00;2.73;;;23.90;99.90;;;;;;5010551;28;20465;-76
2021/09/27 08:49:51;;;;;;;3.10;2.50;;;24.10;99.90;;;;;;5009863;28;20506;-77
2021/09/27 08:52:21;;;;;;;2.87;2.67;;;24.20;99.90;;;;;;5005866;28;20469;-76
2021/09/27 08:54:52;;;;;;;2.80;2.60;;;24.20;99.90;;;;;;5009201;28;20876;-76
2021/09/27 08:57:43;;;;;;;2.70;2.50;;;24.20;99.90;;;;;;5009141;28;20500;-76
2021/09/27 09:00:32;;;;;;;3.63;3.03;;;24.40;99.90;;;;;;5003379;28;20516;-78
2021/09/27 09:03:07;;;;;;;3.20;2.90;;;24.40;99.90;;;;;;5008592;28;20476;-77
2021/09/27 09:05:43;;;;;;;3.53;2.50;;;24.40;99.90;;;;;;5008020;28;20448;-77
2021/09/27 09:08:19;;;;;;;2.83;2.53;;;24.70;99.90;;;;;;5011732;28;20552;-77
2021/09/27 09:10:54;;;;;;;2.83;2.10;;;24.70;99.90;;;;;;5002912;28;21007;-76
2021/09/27 09:13:25;;;;;;;3.13;2.57;;;24.80;99.90;;;;;;5009939;28;20879;-77
2021/09/27 09:15:58;;;;;;;3.77;2.20;;;25.00;99.90;;;;;;5010093;28;20457;-77
2021/09/27 09:18:30;;;;;;;2.10;1.90;;;25.00;99.90;;;;;;5011523;28;20457;-77
2021/09/27 09:21:04;;;;;;;6.83;2.60;;;25.10;99.90;;;;;;5001362;28;20482;-78
2021/09/27 09:23:37;;;;;;;2.77;2.53;;;25.20;99.90;;;;;;5025124;28;20481;-75
2021/09/27 09:26:09;;;;;;;4.50;2.60;;;25.30;99.90;;;;;;5012568;28;20457;-77
2021/09/27 09:28:38;;;;;;;2.43;2.23;;;25.40;99.90;;;;;;5008774;28;20457;-77
2021/09/27 09:31:13;;;;;;;2.47;2.27;;;25.50;99.90;;;;;;5010463;28;20445;-77
2021/09/27 09:33:45;;;;;;;2.30;2.07;;;25.70;99.90;;;;;;5006559;28;20491;-77
2021/09/27 09:36:18;;;;;;;2.07;1.97;;;25.70;99.90;;;;;;5004745;28;20979;-77
2021/09/27 09:38:48;;;;;;;2.33;2.10;;;25.90;99.90;;;;;;5011810;28;20452;-77
2021/09/27 09:41:16;;;;;;;2.40;2.20;;;26.10;99.90;;;;;;5010965;28;20543;-78
2021/09/27 09:43:47;;;;;;;2.03;1.93;;;26.00;99.90;;;;;;5004451;28;20470;-75
2021/09/27 09:46:29;;;;;;;1.60;1.50;;;26.10;99.90;;;;;;5012071;28;20456;-76
2021/09/27 09:49:07;;;;;;;2.30;2.10;;;25.70;99.90;;;;;;5005808;28;20569;-76
2021/09/27 09:51:40;;;;;;;2.13;2.03;;;25.80;99.90;;;;;;5010653;28;20461;-77
2021/09/27 09:54:16;;;;;;;1.77;1.67;;;25.90;99.90;;;;;;5008740;28;20551;-77
2021/09/27 09:56:48;;;;;;;2.67;1.90;;;26.20;99.90;;;;;;5007862;28;20480;-79
2021/09/27 09:59:26;;;;;;;2.33;2.13;;;26.30;99.90;;;;;;5008228;28;20591;-78
2021/09/27 10:01:56;;;;;;;2.10;1.90;;;26.40;99.90;;;;;;5005934;28;20570;-77
2021/09/27 10:04:27;;;;;;;2.20;2.10;;;26.40;99.90;;;;;;5007914;28;20869;-79
2021/09/27 10:07:05;;;;;;;1.77;1.60;;;26.40;99.90;;;;;;5008882;28;20523;-77
2021/09/27 10:09:35;;;;;;;2.17;1.77;;;26.50;99.90;;;;;;5007472;28;20996;-78
2021/09/27 10:12:05;;;;;;;1.80;1.70;;;26.60;99.90;;;;;;5008029;28;20446;-78
2021/09/27 10:14:38;;;;;;;1.70;1.60;;;26.80;99.90;;;;;;5007828;28;20834;-78
2021/09/27 10:17:29;;;;;;;1.60;1.50;;;26.80;99.90;;;;;;5008051;28;20465;-79
2021/09/27 10:20:06;;;;;;;1.70;1.50;;;26.70;99.90;;;;;;5005977;28;20466;-77
2021/09/27 10:22:39;;;;;;;1.73;1.63;;;26.70;99.90;;;;;;5006388;28;20523;-77
2021/09/27 10:25:29;;;;;;;1.80;1.70;;;26.70;99.90;;;;;;5010266;28;20921;-77
2021/09/27 10:27:59;;;;;;;1.70;1.40;;;26.70;99.90;;;;;;5003484;28;20507;-78
2021/09/27 10:30:38;;;;;;;2.17;1.97;;;26.60;99.90;;;;;;5008352;28;20441;-78
2021/09/27 10:33:15;;;;;;;1.80;1.70;;;26.60;99.90;;;;;;5002833;28;20464;-78
2021/09/27 10:35:53;;;;;;;1.87;1.77;;;26.50;99.90;;;;;;5010856;28;20544;-78
2021/09/27 10:38:28;;;;;;;1.70;1.60;;;26.30;99.90;;;;;;5011196;28;20465;-77
2021/09/27 10:40:59;;;;;;;2.27;1.90;;;26.10;99.90;;;;;;5010238;28;20666;-77
2021/09/27 10:43:27;;;;;;;1.50;1.40;;;26.00;99.90;;;;;;5005731;28;20604;-79
2021/09/27 10:45:59;;;;;;;1.80;1.70;;;26.00;99.90;;;;;;5008461;28;20501;-78
2021/09/27 10:48:29;;;;;;;1.90;1.80;;;26.00;99.90;;;;;;5006162;28;20478;-78
2021/09/27 10:51:00;;;;;;;2.00;1.80;;;25.80;99.90;;;;;;5007094;28;20445;-78
2021/09/27 10:53:44;;;;;;;1.60;1.50;;;26.00;99.90;;;;;;5002356;28;20446;-78
2021/09/27 10:56:20;;;;;;;1.53;1.33;;;26.20;99.90;;;;;;4999359;28;20198;-78
2021/09/27 10:58:55;;;;;;;1.75;1.60;;;26.20;99.90;;;;;;5007912;28;20454;-78
2021/09/27 11:01:42;;;;;;;1.90;1.40;;;26.60;99.90;;;;;;5013677;28;20253;-78
2021/09/27 11:04:16;;;;;;;1.83;1.60;;;26.50;99.90;;;;;;4995708;28;21192;-78
2021/09/27 11:06:50;;;;;;;1.47;1.37;;;26.30;99.90;;;;;;4998361;28;20465;-79
2021/09/27 11:09:31;;;;;;;1.60;1.37;;;26.20;99.90;;;;;;5014365;28;20937;-78
2021/09/27 11:12:04;;;;;;;1.53;1.43;;;26.40;99.90;;;;;;5027518;28;20440;-78
2021/09/27 11:14:44;;;;;;;1.93;1.20;;;26.40;99.90;;;;;;5032435;28;20536;-78
2021/09/27 11:17:31;;;;;;;1.87;1.63;;;26.30;99.90;;;;;;4994221;28;20449;-79
2021/09/27 11:20:26;;;;;;;1.67;1.57;;;26.30;99.90;;;;;;4997706;28;20532;-77
2021/09/27 11:23:21;;;;;;;1.30;1.20;;;26.30;99.90;;;;;;5007891;28;20477;-78
2021/09/27 11:26:07;;;;;;;1.70;1.53;;;26.20;99.90;;;;;;5009182;28;20462;-79
2021/09/27 11:28:47;;;;;;;1.97;1.10;;;26.00;99.90;;;;;;5006841;28;20505;-76
2021/09/27 11:31:35;;;;;;;1.50;1.40;;;26.00;99.90;;;;;;5006732;28;20461;-77
2021/09/27 11:34:30;;;;;;;1.20;1.10;;;25.80;99.90;;;;;;5005389;28;21037;-77
2021/09/27 11:37:21;;;;;;;1.67;1.10;;;25.70;99.90;;;;;;5003952;28;20445;-78
2021/09/27 11:39:53;;;;;;;1.30;1.20;;;25.40;99.90;;;;;;5023453;28;20987;-78
2021/09/27 11:42:36;;;;;;;1.67;1.20;;;25.40;99.90;;;;;;5006953;28;20547;-77
2021/09/27 11:45:40;;;;;;;1.43;1.33;;;25.50;99.90;;;;;;5001760;28;20457;-77
2021/09/27 11:48:12;;;;;;;1.47;1.37;;;25.50;99.90;;;;;;4970384;28;21185;-76
2021/09/27 11:51:05;;;;;;;1.10;1.10;;;25.50;99.90;;;;;;5009432;28;20555;-78
2021/09/27 11:53:54;;;;;;;1.40;1.30;;;25.40;99.90;;;;;;5005139;28;20519;-77
2021/09/27 11:56:28;;;;;;;2.37;1.33;;;25.50;99.90;;;;;;4997670;28;20818;-76
2021/09/27 11:59:05;;;;;;;1.40;1.30;;;25.50;99.90;;;;;;5006580;28;20464;-77
2021/09/27 12:01:40;;;;;;;1.33;1.23;;;25.50;99.90;;;;;;5008077;28;20510;-77
2021/09/27 12:04:25;;;;;;;1.50;1.30;;;25.60;99.90;;;;;;4999683;28;20534;-76
2021/09/27 12:07:02;;;;;;;2.17;1.60;;;25.50;99.90;;;;;;5006847;28;20462;-77
2021/09/27 12:09:39;;;;;;;4.13;1.60;;;25.30;99.90;;;;;;5005451;28;20984;-78
2021/09/27 12:12:09;;;;;;;1.70;1.50;;;25.20;99.90;;;;;;5006112;28;20534;-77
2021/09/27 12:14:42;;;;;;;2.03;1.40;;;25.20;99.90;;;;;;5005461;28;20454;-77
2021/09/27 12:17:15;;;;;;;2.30;1.60;;;25.30;99.90;;;;;;5006863;28;20466;-77
2021/09/27 12:19:49;;;;;;;1.60;1.50;;;25.40;99.90;;;;;;5006237;28;20457;-78
2021/09/27 12:22:22;;;;;;;1.30;1.20;;;25.40;99.90;;;;;;5011408;28;21061;-78
2021/09/27 12:24:52;;;;;;;2.67;2.00;;;25.50;99.90;;;;;;5005170;28;20547;-76
2021/09/27 12:27:24;;;;;;;1.57;1.47;;;25.40;99.90;;;;;;5008376;28;20524;-77
2021/09/27 12:29:57;;;;;;;1.20;1.10;;;25.40;99.90;;;;;;4999060;28;20453;-77
2021/09/27 12:32:29;;;;;;;1.47;1.37;;;25.40;99.90;;;;;;5003869;28;20473;-76
2021/09/27 12:34:59;;;;;;;2.13;1.40;;;25.20;99.90;;;;;;4998982;28;20824;-75
2021/09/27 12:37:35;;;;;;;1.37;1.10;;;25.10;99.90;;;;;;5008534;28;20449;-76
2021/09/27 12:40:05;;;;;;;1.47;1.37;;;24.90;99.90;;;;;;5006722;28;20460;-75
2021/09/27 12:42:42;;;;;;;1.90;1.80;;;24.80;99.90;;;;;;5004576;28;20996;-77
2021/09/27 12:45:20;;;;;;;1.30;1.20;;;24.90;99.90;;;;;;5003412;28;20848;-77
2021/09/27 12:47:50;;;;;;;2.80;1.27;;;24.80;99.90;;;;;;5007825;28;20926;-77
2021/09/27 12:50:21;;;;;;;1.63;1.50;;;24.70;99.90;;;;;;5009371;28;20941;-77
2021/09/27 12:52:53;;;;;;;2.13;1.43;;;24.70;99.90;;;;;;5006644;28;20477;-76
2021/09/27 12:55:24;;;;;;;1.73;1.10;;;24.70;99.90;;;;;;5006003;28;20524;-77
2021/09/27 12:57:56;;;;;;;1.33;1.23;;;24.70;99.90;;;;;;4999343;28;20457;-76
2021/09/27 13:00:31;;;;;;;1.47;1.37;;;24.80;99.90;;;;;;5007369;28;20465;-77
2021/09/27 13:03:03;;;;;;;1.20;1.07;;;24.90;99.90;;;;;;5001083;28;20503;-76
2021/09/27 13:05:49;;;;;;;2.30;1.30;;;25.00;99.90;;;;;;5008190;28;20453;-78
2021/09/27 13:08:28;;;;;;;1.30;1.20;;;25.00;99.90;;;;;;5005264;28;20457;-76
2021/09/27 13:10:58;;;;;;;1.10;1.10;;;25.10;99.90;;;;;;5002407;28;20453;-76
2021/09/27 13:13:30;;;;;;;1.23;1.00;;;25.00;99.90;;;;;;5012885;28;20920;-78
2021/09/27 13:16:02;;;;;;;1.40;1.10;;;25.10;99.90;;;;;;5006876;28;20457;-75
2021/09/27 13:18:44;;;;;;;1.20;1.10;;;25.10;99.90;;;;;;5005753;28;20544;-76
2021/09/27 13:21:22;;;;;;;1.33;0.97;;;25.20;99.90;;;;;;5004493;28;20492;-75
2021/09/27 13:23:53;;;;;;;1.30;1.20;;;25.10;99.90;;;;;;4999029;28;20492;-77
2021/09/27 13:26:25;;;;;;;2.90;1.30;;;25.10;99.90;;;;;;5004279;28;20461;-76
2021/09/27 13:28:59;;;;;;;1.20;1.10;;;25.20;99.90;;;;;;5004937;28;21146;-75
2021/09/27 13:31:33;;;;;;;0.90;0.90;;;25.10;99.90;;;;;;5023930;28;20498;-76
2021/09/27 13:34:04;;;;;;;1.20;1.10;;;25.10;99.90;;;;;;5010230;28;20469;-76